createdAt,value
2022-08-08T03:18:16.462Z,86.56
2022-08-08T03:21:58.587Z,86.20
2022-08-08T03:25:21.737Z,86.71
2022-08-08T03:28:47.446Z,87.09
2022-08-08T03:32:14.362Z,87.63
2022-08-08T03:35:30.138Z,88.13
2022-08-08T03:38:56.568Z,88.42
2022-08-08T03:42:27.292Z,88.44
2022-08-08T03:46:06.416Z,87.91
2022-08-08T03:49:56.535Z,88.39
2022-08-08T03:52:58.460Z,89.15
2022-08-08T03:56:10.387Z,88.68
2022-08-08T03:59:57.411Z,88.76
2022-08-08T04:03:58.214Z,89.08
2022-08-08T04:07:00.957Z,89.21
2022-08-08T04:10:18.749Z,89.42
2022-08-08T04:13:28.566Z,89.38
2022-08-08T04:16:51.554Z,89.92
2022-08-08T04:20:05.042Z,89.65
2022-08-08T04:23:19.805Z,89.44
2022-08-08T04:26:35.471Z,89.25
2022-08-08T04:30:17.698Z,89.18
2022-08-08T04:33:32.126Z,89.24
2022-08-08T04:36:55.764Z,89.68
2022-08-08T04:40:10.680Z,89.56
2022-08-08T04:43:46.272Z,89.38
2022-08-08T04:47:05.437Z,89.43
2022-08-08T04:50:38.189Z,90.55
2022-08-08T04:54:39.182Z,90.65
2022-08-08T04:57:22.996Z,90.68
2022-08-08T07:34:08.770Z,55.05
2022-08-08T07:37:23.414Z,54.05
2022-08-08T07:40:36.964Z,53.93
2022-08-08T07:43:54.729Z,51.87
2022-08-08T07:47:04.989Z,51.47
2022-08-08T07:50:22.140Z,51.60
2022-08-08T07:54:01.061Z,50.93
2022-08-08T07:57:19.939Z,49.82
2022-08-08T08:00:40.293Z,50.44
2022-08-08T08:04:04.727Z,48.57
2022-08-08T08:07:19.094Z,48.34
2022-08-08T08:10:40.682Z,48.66
2022-08-08T08:14:08.524Z,48.25
2022-08-08T08:17:36.429Z,48.33
2022-08-08T08:20:57.117Z,46.91
2022-08-08T08:24:10.644Z,46.40
2022-08-08T08:27:22.003Z,45.76
2022-08-08T08:30:36.525Z,45.48
2022-08-08T08:33:47.289Z,45.39
2022-08-08T08:37:07.829Z,44.00
2022-08-08T08:40:26.599Z,43.75
2022-08-08T08:43:38.314Z,42.97
2022-08-08T08:46:58.537Z,41.33
2022-08-08T08:50:31.840Z,41.42
2022-08-08T08:53:54.958Z,41.17
2022-08-08T08:57:15.536Z,39.35
2022-08-08T09:00:44.446Z,40.23
2022-08-08T09:04:06.885Z,39.49
2022-08-08T09:07:38.845Z,37.93
2022-08-08T09:10:57.518Z,38.45
2022-08-08T09:14:10.047Z,37.53
2022-08-08T09:17:40.749Z,37.84
2022-08-08T09:22:01.475Z,36.86
2022-08-08T09:24:31.167Z,36.13
2022-08-08T09:27:57.986Z,36.22
2022-08-08T09:31:15.498Z,36.72
2022-08-08T09:34:42.128Z,36.03
2022-08-08T09:38:04.309Z,35.00
2022-08-08T09:42:15.059Z,35.02
2022-08-08T09:45:20.866Z,35.09
2022-08-08T09:48:46.599Z,33.81
2022-08-08T09:52:08.121Z,34.19
2022-08-08T09:55:51.321Z,35.16
2022-08-08T09:58:58.372Z,35.40
2022-08-08T10:02:19.853Z,34.29
2022-08-08T10:05:39.843Z,34.45
2022-08-08T10:08:51.674Z,33.25
2022-08-08T10:12:27.036Z,33.71
2022-08-08T10:15:42.112Z,33.14
2022-08-08T10:19:11.658Z,32.39
2022-08-08T10:22:33.712Z,31.43
2022-08-08T10:25:52.459Z,31.72
2022-08-08T10:29:11.504Z,32.48
2022-08-08T10:32:36.228Z,32.93
2022-08-08T10:36:08.127Z,32.39
2022-08-08T10:39:43.643Z,33.10
2022-08-08T10:43:04.228Z,32.54
2022-08-08T10:46:30.101Z,32.48
2022-08-08T10:50:01.686Z,30.89
2022-08-08T10:53:13.123Z,31.22
2022-08-08T10:56:32.555Z,31.36
2022-08-08T10:59:45.470Z,30.84
2022-08-08T11:03:06.398Z,30.72
2022-08-08T11:06:19.597Z,31.08
2022-08-08T11:09:32.118Z,29.82
2022-08-08T11:13:12.221Z,30.25
2022-08-08T11:16:34.342Z,29.55
2022-08-08T11:19:46.537Z,30.08
2022-08-08T11:23:05.681Z,29.91
2022-08-08T11:26:20.968Z,30.53
2022-08-08T11:29:58.128Z,30.11
2022-08-08T11:33:13.224Z,29.82
2022-08-08T11:36:27.888Z,29.97
2022-08-08T11:39:57.435Z,29.26
2022-08-08T11:43:11.533Z,29.34
2022-08-08T11:46:30.563Z,29.25
2022-08-08T11:49:44.673Z,28.25
2022-08-08T11:52:59.368Z,28.35
2022-08-08T11:56:22.365Z,28.04
2022-08-08T11:59:57.809Z,28.09
2022-08-08T12:03:21.447Z,28.82
2022-08-08T12:06:34.367Z,28.35
2022-08-08T12:09:56.933Z,28.50
2022-08-08T12:13:12.124Z,28.03
2022-08-08T12:16:28.211Z,29.13
2022-08-08T12:19:57.393Z,28.29
2022-08-08T12:23:25.026Z,27.89
2022-08-08T12:26:41.716Z,27.95
2022-08-08T12:29:57.402Z,27.11
2022-08-08T12:33:18.654Z,27.12
2022-08-08T12:36:46.413Z,27.31
2022-08-08T12:40:02.816Z,27.17
2022-08-08T12:43:16.692Z,27.61
2022-08-08T12:46:32.756Z,27.52
2022-08-08T12:49:54.481Z,26.63
2022-08-08T12:53:05.845Z,26.34
2022-08-08T12:56:24.190Z,26.40
2022-08-08T13:00:04.380Z,26.25
2022-08-08T13:03:25.844Z,25.69
2022-08-08T13:06:54.556Z,26.30
2022-08-08T13:10:10.644Z,27.54
2022-08-08T13:13:28.230Z,27.62
2022-08-08T13:16:49.086Z,27.96
2022-08-08T13:20:06.518Z,27.34
2022-08-08T13:23:30.730Z,27.12
2022-08-08T13:26:46.124Z,27.15
2022-08-08T13:30:00.583Z,26.38
2022-08-08T13:33:18.355Z,25.20
2022-08-08T13:36:32.127Z,25.62
2022-08-08T13:39:42.681Z,26.03
2022-08-08T13:43:03.973Z,24.90
2022-08-08T13:46:27.353Z,25.21
2022-08-08T13:50:35.746Z,25.10
2022-08-08T13:53:24.901Z,24.97
2022-08-08T13:56:44.755Z,24.95
2022-08-08T14:00:11.443Z,24.67
2022-08-08T14:03:53.848Z,25.42
2022-08-08T14:07:02.693Z,25.35
2022-08-08T14:10:17.612Z,25.34
2022-08-08T14:14:00.284Z,24.51
2022-08-08T14:17:22.527Z,24.99
2022-08-08T14:20:58.148Z,25.63
2022-08-08T14:24:09.785Z,25.66
2022-08-08T14:27:28.713Z,25.80
2022-08-08T14:30:38.834Z,25.91
2022-08-08T14:33:55.215Z,26.33
2022-08-08T14:37:09.783Z,26.28
2022-08-08T14:40:24.546Z,26.06
2022-08-08T14:44:10.418Z,26.42
2022-08-08T14:47:21.748Z,25.74
2022-08-08T14:50:38.070Z,25.75
2022-08-08T14:53:55.099Z,25.53
2022-08-08T14:57:06.166Z,25.37
2022-08-08T15:00:18.611Z,24.52
2022-08-08T15:03:38.593Z,24.57
2022-08-08T15:06:56.028Z,25.14
2022-08-08T15:10:06.401Z,24.97
2022-08-08T15:13:19.409Z,25.31
2022-08-08T15:16:34.546Z,25.07
2022-08-08T15:19:44.747Z,25.16
2022-08-08T15:22:59.403Z,25.19
2022-08-08T15:26:13.033Z,25.95
2022-08-08T15:29:24.505Z,25.65
2022-08-08T15:32:35.918Z,24.80
2022-08-08T15:35:48.707Z,25.54
2022-08-08T15:39:00.202Z,25.19
2022-08-08T15:42:31.604Z,25.76
2022-08-08T15:45:48.824Z,25.41
2022-08-08T15:48:58.776Z,25.39
2022-08-08T15:52:12.184Z,25.97
2022-08-08T15:55:23.635Z,25.90
2022-08-08T15:58:33.729Z,25.66
2022-08-08T16:02:00.234Z,25.60
2022-08-08T16:05:13.971Z,25.69
2022-08-08T16:08:24.378Z,25.51
2022-08-08T16:13:08.803Z,26.24
2022-08-08T16:15:08.271Z,25.77
2022-08-08T16:18:18.089Z,25.17
2022-08-08T16:21:35.494Z,25.48
2022-08-08T16:24:50.516Z,26.70
2022-08-08T16:28:05.349Z,26.00
2022-08-08T16:31:34.351Z,26.62
2022-08-08T16:34:47.233Z,25.44
2022-08-08T16:38:00.261Z,26.58
2022-08-08T16:41:10.621Z,26.26
2022-08-08T16:44:33.761Z,25.82
2022-08-08T16:47:44.207Z,26.05
2022-08-08T16:50:54.166Z,27.01
2022-08-08T16:55:04.914Z,26.51
2022-08-08T16:58:13.799Z,26.91
2022-08-08T17:01:11.154Z,26.52
2022-08-08T17:04:26.437Z,27.49
2022-08-08T17:07:37.875Z,27.25
2022-08-08T17:10:58.558Z,27.90
2022-08-08T17:14:27.301Z,27.23
2022-08-08T17:18:02.829Z,27.89
2022-08-08T17:21:14.139Z,27.33
2022-08-08T17:24:28.050Z,28.42
2022-08-08T17:27:46.022Z,28.27
2022-08-08T17:30:57.043Z,28.12
2022-08-08T17:34:35.946Z,28.29
2022-08-08T17:37:38.136Z,28.32
2022-08-08T17:40:48.901Z,29.47
2022-08-08T17:44:02.371Z,29.98
2022-08-08T17:47:23.709Z,30.66
2022-08-08T17:50:35.862Z,31.05
2022-08-08T17:53:45.780Z,33.73
2022-08-08T17:57:08.118Z,33.85
2022-08-08T18:00:30.205Z,32.89
2022-08-08T18:03:42.867Z,34.77
2022-08-08T18:08:01.003Z,35.99
2022-08-08T18:10:40.335Z,36.67
2022-08-08T18:13:51.448Z,37.81
2022-08-08T18:17:02.766Z,38.24
2022-08-08T18:20:36.659Z,38.82
2022-08-08T18:23:56.239Z,40.53
2022-08-08T18:27:17.672Z,41.31
2022-08-08T18:30:28.119Z,42.01
2022-08-08T18:34:11.345Z,43.01
2022-08-08T18:37:17.605Z,43.31
2022-08-08T18:40:41.847Z,43.71
2022-08-08T18:43:58.171Z,44.56
2022-08-08T18:47:11.473Z,44.00
2022-08-08T18:50:24.366Z,44.07
2022-08-08T18:54:00.965Z,46.38
2022-08-08T18:57:11.068Z,46.32
2022-08-08T19:00:26.561Z,46.54
2022-08-08T19:04:05.460Z,46.87
2022-08-08T19:07:10.212Z,47.56
2022-08-08T19:10:20.318Z,47.95
2022-08-08T19:13:52.393Z,48.43
2022-08-08T19:17:06.365Z,48.98
2022-08-08T19:20:21.007Z,49.47
2022-08-08T19:23:35.390Z,49.83
2022-08-08T19:26:50.917Z,50.18
2022-08-08T19:30:04.779Z,51.35
2022-08-08T19:33:52.366Z,51.30
2022-08-08T19:37:00.147Z,52.12
2022-08-08T19:40:22.077Z,52.52
2022-08-08T19:44:02.407Z,53.16
2022-08-08T19:47:15.990Z,53.58
2022-08-08T19:50:27.143Z,53.73
2022-08-08T19:53:53.399Z,53.80
2022-08-08T19:57:07.608Z,54.81
2022-08-08T20:00:29.992Z,54.55
2022-08-08T20:04:01.759Z,54.94
2022-08-08T20:08:26.873Z,55.80
2022-08-08T20:10:45.568Z,56.12
2022-08-08T20:14:12.714Z,55.96
2022-08-08T20:17:29.396Z,56.98
